Time;durP1;ratioP1;P1;durP2;ratioP2;P2;SDS_P1;SDS_P2;PMS_P1;PMS_P2;Temp;Humidity;BMP_temperature;BMP_pressure;BME280_temperature;BME280_humidity;BME280_pressure;Samples;Min_cycle;Max_cycle;Signal;HPM_P1;HPM_P2
2022/02/10 00:17:23;;;;;;;;;;;;;;;;;;;;;
2022/02/10 00:51:54;;;;;;;;;;;;;;;;;;;;;
2022/02/10 01:02:13;;;;;;;;;116.40;115.20;;;;;;;;4781479;29;10080;-78
2022/02/10 01:14:17;;;;;;;;;113.20;109.60;;;;;;;;5073849;28;8741;-78
2022/02/10 01:30:11;;;;;;;;;112.20;107.00;;;;;;;;5076026;28;8864;-77
2022/02/10 01:32:36;;;;;;;;;118.20;113.80;;;;;;;;5074544;28;8824;-79
2022/02/10 01:35:05;;;;;;;;;100.80;97.40;;;;;;;;5075939;28;8854;-79
2022/02/10 01:37:30;;;;;;;;;125.00;120.00;;;;;;;;5075390;28;9742;-78
2022/02/10 01:40:06;;;;;;;;;112.00;110.50;;;;;;;;5075687;28;8945;-78
2022/02/10 02:04:17;;;;;;;;;118.40;115.20;;;;;;;;5070772;28;8794;-78
2022/02/10 02:06:44;;;;;;;;;126.20;118.00;;;;;;;;5068549;28;8881;-78
2022/02/10 02:09:12;;;;;;;;;132.25;129.75;;;;;;;;5062098;28;8893;-78
2022/02/10 02:11:39;;;;;;;;;102.00;96.80;;;;;;;;5063749;28;8814;-78
2022/02/10 02:14:05;;;;;;;;;122.20;120.60;;;;;;;;5071642;28;8784;-78
2022/02/10 02:16:30;;;;;;;;;110.00;108.60;;;;;;;;5065398;28;8834;-79
2022/02/10 02:18:55;;;;;;;;;111.50;109.25;;;;;;;;5075173;28;8865;-79
2022/02/10 02:21:22;;;;;;;;;115.25;112.00;;;;;;;;5075380;28;8843;-79
2022/02/10 02:23:48;;;;;;;;;114.25;110.75;;;;;;;;5074455;28;8852;-78
2022/02/10 02:26:17;;;;;;;;;103.20;99.80;;;;;;;;5066790;28;8812;-79
2022/02/10 02:28:47;;;;;;;;;110.80;107.40;;;;;;;;5075141;28;8789;-79
2022/02/10 02:31:19;;;;;;;;;107.00;105.40;;;;;;;;5075243;28;8861;-79
2022/02/10 02:34:10;;;;;;;;;115.00;112.17;;;;;;;;5070502;28;8761;-79
2022/02/10 03:09:05;;;;;;;;;97.83;92.33;;;;;;;;5060193;28;8893;-79
2022/02/10 03:11:30;;;;;;;;;113.00;109.80;;;;;;;;5064061;28;8799;-79
2022/02/10 03:14:01;;;;;;;;;108.75;104.00;;;;;;;;5070954;28;8816;-79
2022/02/10 03:22:54;;;;;;;;;131.40;128.60;;;;;;;;5074378;28;8781;-79
2022/02/10 04:09:16;;;;;;;;;114.40;109.40;;;;;;;;5073589;28;8857;-78
2022/02/10 04:14:26;;;;;;;;;109.60;107.60;;;;;;;;5074193;28;8780;-78
2022/02/10 04:17:11;;;;;;;;;117.60;115.00;;;;;;;;5070055;28;8847;-77
2022/02/10 04:19:56;;;;;;;;;112.83;107.17;;;;;;;;5077174;28;8745;-77
2022/02/10 04:22:31;;;;;;;;;113.60;113.60;;;;;;;;5064024;28;8784;-78
2022/02/10 04:25:04;;;;;;;;;108.60;106.00;;;;;;;;5076152;28;8851;-78
2022/02/10 04:59:35;;;;;;;;;113.40;112.40;;;;;;;;5070836;28;8800;-77
2022/02/10 05:17:23;;;;;;;;;109.20;106.60;;;;;;;;5075802;28;8761;-77
2022/02/10 05:33:59;;;;;;;;;132.40;129.20;;;;;;;;5075263;28;8773;-77
2022/02/10 05:36:25;;;;;;;;;127.60;124.60;;;;;;;;5075489;28;8866;-77
2022/02/10 05:38:53;;;;;;;;;117.00;111.40;;;;;;;;5075731;28;8775;-77
2022/02/10 05:55:16;;;;;;;;;143.00;141.33;;;;;;;;5062733;28;8796;-77
2022/02/10 06:49:26;;;;;;;;;147.60;144.20;;;;;;;;5077251;28;8733;-77
2022/02/10 07:59:38;;;;;;;;;123.40;121.00;;;;;;;;5073508;28;8842;-83
2022/02/10 09:09:09;;;;;;;;;93.25;84.50;;;;;;;;5073431;28;8883;-80
2022/02/10 09:25:50;;;;;;;;;91.25;84.00;;;;;;;;5085052;28;8822;-83
2022/02/10 10:02:37;;;;;;;;;97.40;91.80;;;;;;;;5074033;28;8948;-81
2022/02/10 10:05:23;;;;;;;;;113.40;109.40;;;;;;;;5063092;28;8824;-82
2022/02/10 10:15:50;;;;;;;;;103.00;102.20;;;;;;;;5075222;28;8890;-81
2022/02/10 10:50:59;;;;;;;;;89.25;80.00;;;;;;;;5064899;28;8838;-81
2022/02/10 10:58:58;;;;;;;;;85.75;73.25;;;;;;;;5071299;28;8823;-81
2022/02/10 11:38:03;;;;;;;;;86.00;74.75;;;;;;;;5069412;28;8760;-82
2022/02/10 11:40:31;;;;;;;;;77.75;62.50;;;;;;;;5076378;28;9699;-83
2022/02/10 11:43:07;;;;;;;;;84.25;72.00;;;;;;;;5068810;28;8800;-83
2022/02/10 11:46:14;;;;;;;;;83.80;72.80;;;;;;;;5069653;28;9718;-83
2022/02/10 11:59:37;;;;;;;;;84.00;72.75;;;;;;;;5069480;28;8805;-83
2022/02/10 14:14:24;;;;;;;;;83.00;72.20;;;;;;;;5075176;28;8772;-81
2022/02/10 14:19:29;;;;;;;;;72.00;58.60;;;;;;;;5075683;28;8792;-81
2022/02/10 14:22:08;;;;;;;;;51.80;45.00;;;;;;;;5075246;28;8780;-81
2022/02/10 14:27:18;;;;;;;;;74.50;61.50;;;;;;;;5062814;28;8788;-81
2022/02/10 14:29:44;;;;;;;;;72.00;58.50;;;;;;;;5075551;28;8784;-82
2022/02/10 14:32:10;;;;;;;;;82.00;72.50;;;;;;;;5073442;28;8811;-82
2022/02/10 14:34:36;;;;;;;;;69.25;56.50;;;;;;;;5075263;28;8878;-82
2022/02/10 14:37:31;;;;;;;;;72.25;59.00;;;;;;;;5075588;28;8788;-82
2022/02/10 14:39:58;;;;;;;;;82.00;70.00;;;;;;;;5074786;28;9627;-82
2022/02/10 15:56:07;;;;;;;;;77.75;62.25;;;;;;;;5074220;28;8777;-82
2022/02/10 16:17:25;;;;;;;;;75.25;60.00;;;;;;;;5077621;28;8827;-81
2022/02/10 16:19:50;;;;;;;;;75.00;61.00;;;;;;;;5074714;28;8816;-81
2022/02/10 16:25:02;;;;;;;;;79.67;68.67;;;;;;;;5077310;28;8910;-82
2022/02/10 16:27:29;;;;;;;;;72.40;59.60;;;;;;;;5066723;28;8781;-81
2022/02/10 16:30:00;;;;;;;;;63.75;53.75;;;;;;;;5076570;28;8876;-81
2022/02/10 16:32:26;;;;;;;;;74.00;59.50;;;;;;;;5067398;28;8819;-81
2022/02/10 16:34:52;;;;;;;;;80.75;68.75;;;;;;;;5077054;28;11555;-81
2022/02/10 16:37:17;;;;;;;;;70.25;56.75;;;;;;;;5077361;28;8804;-81
2022/02/10 16:39:43;;;;;;;;;71.75;57.50;;;;;;;;5076919;28;8839;-81
2022/02/10 16:42:10;;;;;;;;;73.33;59.33;;;;;;;;5070733;28;8808;-81
2022/02/10 16:44:37;;;;;;;;;71.75;58.50;;;;;;;;5076919;28;9731;-81
2022/02/10 16:47:02;;;;;;;;;69.20;56.20;;;;;;;;5075721;28;8820;-81
2022/02/10 16:49:28;;;;;;;;;71.00;57.50;;;;;;;;5077140;28;8811;-81
2022/02/10 16:51:57;;;;;;;;;78.00;65.50;;;;;;;;5077248;28;8823;-81
2022/02/10 16:54:33;;;;;;;;;70.75;58.25;;;;;;;;5076256;28;9808;-81
2022/02/10 16:57:06;;;;;;;;;75.00;61.00;;;;;;;;5076785;28;11548;-81
2022/02/10 17:26:33;;;;;;;;;53.00;45.75;;;;;;;;5076859;28;8800;-81
2022/02/10 17:29:08;;;;;;;;;36.25;32.75;;;;;;;;5064893;28;8854;-81
2022/02/10 17:32:47;;;;;;;;;54.75;47.50;;;;;;;;5076437;28;8753;-81
2022/02/10 17:34:51;;;;;;;;;81.00;70.00;;;;;;;;5081459;28;8846;-81
2022/02/10 17:51:31;;;;;;;;;82.00;70.20;;;;;;;;5075932;28;8816;-79
2022/02/10 17:53:57;;;;;;;;;102.00;101.00;;;;;;;;5064016;28;8797;-79
2022/02/10 17:56:24;;;;;;;;;163.83;161.17;;;;;;;;5075383;28;8831;-79
2022/02/10 17:58:49;;;;;;;;;137.80;136.20;;;;;;;;5075830;28;8744;-82
2022/02/10 18:01:15;;;;;;;;;131.40;130.40;;;;;;;;5074941;28;9626;-83
2022/02/10 18:03:40;;;;;;;;;165.40;164.60;;;;;;;;5075506;28;8942;-83
2022/02/10 18:08:43;;;;;;;;;140.25;139.50;;;;;;;;5075437;28;8827;-83
2022/02/10 18:13:54;;;;;;;;;138.00;138.00;;;;;;;;5075557;28;8809;-82
2022/02/10 18:16:22;;;;;;;;;129.60;128.60;;;;;;;;5066837;28;8800;-82
2022/02/10 18:18:55;;;;;;;;;126.60;125.40;;;;;;;;5073587;28;12518;-83
2022/02/10 19:02:17;;;;;;;;;243.00;243.00;;;;;;;;5074285;28;8800;-84
2022/02/10 19:07:19;;;;;;;;;228.80;227.60;;;;;;;;5074463;28;8781;-84
2022/02/10 19:09:47;;;;;;;;;238.33;238.33;;;;;;;;5058871;28;8837;-80
2022/02/10 19:12:19;;;;;;;;;217.80;217.20;;;;;;;;5057265;28;8725;-81
2022/02/10 19:15:09;;;;;;;;;249.80;247.80;;;;;;;;5073105;28;8800;-81
2022/02/10 19:17:34;;;;;;;;;222.00;221.20;;;;;;;;5072636;28;9780;-81
2022/02/10 19:20:00;;;;;;;;;178.33;178.33;;;;;;;;5074316;28;8936;-82
2022/02/10 19:22:26;;;;;;;;;197.20;196.80;;;;;;;;5073414;28;8867;-82
2022/02/10 19:24:53;;;;;;;;;200.00;200.00;;;;;;;;5074168;28;8820;-82
2022/02/10 19:27:19;;;;;;;;;198.83;197.00;;;;;;;;5074410;28;9734;-82
2022/02/10 19:29:45;;;;;;;;;209.00;207.80;;;;;;;;5074236;28;8911;-82
2022/02/10 19:32:15;;;;;;;;;186.50;186.00;;;;;;;;5062368;28;9687;-82
2022/02/10 19:34:41;;;;;;;;;211.60;211.60;;;;;;;;5073929;28;11679;-83
2022/02/10 19:37:06;;;;;;;;;184.83;184.83;;;;;;;;5073956;28;9631;-82
2022/02/10 19:39:34;;;;;;;;;205.00;204.40;;;;;;;;5072648;28;9137;-83
2022/02/10 19:41:59;;;;;;;;;204.60;204.60;;;;;;;;5073562;28;8830;-86
2022/02/10 19:44:26;;;;;;;;;199.20;199.20;;;;;;;;5074051;28;8812;-84
2022/02/10 19:46:52;;;;;;;;;206.50;205.33;;;;;;;;5069335;28;8830;-86
2022/02/10 19:49:21;;;;;;;;;206.60;206.60;;;;;;;;5073604;28;8796;-83
2022/02/10 19:51:47;;;;;;;;;181.83;180.83;;;;;;;;5073305;28;8803;-87
2022/02/10 19:54:14;;;;;;;;;192.00;192.00;;;;;;;;5073312;28;8980;-87
2022/02/10 19:56:40;;;;;;;;;183.17;183.17;;;;;;;;5071041;28;8814;-87
2022/02/10 19:59:06;;;;;;;;;189.20;188.40;;;;;;;;5072021;28;8816;-87
2022/02/10 20:01:32;;;;;;;;;190.00;190.00;;;;;;;;5073334;28;8955;-86
2022/02/10 20:04:00;;;;;;;;;187.00;186.80;;;;;;;;5073641;28;8957;-86
2022/02/10 20:06:25;;;;;;;;;198.25;196.75;;;;;;;;5060996;28;8789;-85
2022/02/10 20:08:51;;;;;;;;;182.40;182.20;;;;;;;;5073058;28;8812;-86
2022/02/10 20:11:16;;;;;;;;;185.00;185.00;;;;;;;;5073037;28;8820;-86
2022/02/10 20:13:42;;;;;;;;;195.50;194.50;;;;;;;;5073094;28;8806;-86
2022/02/10 20:16:08;;;;;;;;;188.80;188.60;;;;;;;;5072728;28;8816;-86
2022/02/10 20:18:37;;;;;;;;;185.50;185.50;;;;;;;;5063599;28;8837;-86
2022/02/10 20:21:04;;;;;;;;;185.00;185.00;;;;;;;;5072900;28;8804;-86
2022/02/10 20:23:33;;;;;;;;;204.50;203.75;;;;;;;;5072959;28;8789;-87
2022/02/10 20:25:58;;;;;;;;;188.00;188.00;;;;;;;;5073202;28;8828;-86
2022/02/10 20:28:25;;;;;;;;;219.00;218.40;;;;;;;;5071650;28;8931;-87
2022/02/10 20:30:51;;;;;;;;;205.50;204.33;;;;;;;;5072914;28;8792;-86
2022/02/10 20:33:19;;;;;;;;;190.25;189.00;;;;;;;;5061489;28;8829;-86
2022/02/10 20:35:46;;;;;;;;;215.17;214.17;;;;;;;;5062564;28;8823;-87
2022/02/10 20:38:15;;;;;;;;;146.67;146.67;;;;;;;;5072516;28;9853;-87
2022/02/10 20:40:43;;;;;;;;;181.80;181.80;;;;;;;;5063627;28;8805;-88
2022/02/10 20:43:09;;;;;;;;;208.33;207.33;;;;;;;;5071430;28;9789;-86
2022/02/10 20:45:36;;;;;;;;;208.33;207.00;;;;;;;;5072876;28;8909;-86
2022/02/10 20:48:02;;;;;;;;;88.20;79.40;;;;;;;;5066402;28;8803;-86
2022/02/10 20:50:28;;;;;;;;;209.00;208.60;;;;;;;;5072670;28;8925;-86
2022/02/10 20:52:53;;;;;;;;;211.40;211.20;;;;;;;;5061492;28;8795;-86
2022/02/10 20:55:19;;;;;;;;;196.67;196.67;;;;;;;;5066100;28;8843;-85
2022/02/10 20:57:44;;;;;;;;;208.40;206.20;;;;;;;;5074369;28;8824;-85
2022/02/10 21:00:12;;;;;;;;;208.60;208.60;;;;;;;;5082962;28;8784;-85
2022/02/10 21:02:42;;;;;;;;;201.00;201.00;;;;;;;;5088798;28;9777;-85
2022/02/10 21:05:54;;;;;;;;;37.25;34.25;;;;;;;;5065129;28;8804;-85
2022/02/10 21:08:29;;;;;;;;;103.17;98.00;;;;;;;;5076181;28;9740;-84
2022/02/10 21:10:43;;;;;;;;;45.60;40.60;;;;;;;;5072070;28;8787;-85
2022/02/10 21:13:11;;;;;;;;;192.40;192.40;;;;;;;;5067128;28;9033;-85
2022/02/10 21:15:45;;;;;;;;;193.83;193.83;;;;;;;;5075997;28;8835;-86
2022/02/10 21:18:12;;;;;;;;;64.80;56.60;;;;;;;;5073580;28;8963;-85
2022/02/10 21:20:38;;;;;;;;;148.00;148.00;;;;;;;;5075761;28;8797;-85
2022/02/10 21:23:14;;;;;;;;;144.33;144.33;;;;;;;;5076059;28;9635;-84
2022/02/10 21:25:41;;;;;;;;;96.80;90.20;;;;;;;;5063671;28;9038;-85
2022/02/10 21:28:20;;;;;;;;;162.80;162.80;;;;;;;;5075949;28;10024;-85
2022/02/10 21:30:47;;;;;;;;;90.60;82.20;;;;;;;;5063882;28;9091;-85
2022/02/10 21:33:30;;;;;;;;;46.00;41.75;;;;;;;;5071826;28;8800;-85
2022/02/10 21:38:45;;;;;;;;;38.75;36.00;;;;;;;;5063997;28;8838;-81
2022/02/10 22:03:23;;;;;;;;;6.25;6.25;;;;;;;;5062747;28;8729;-84
2022/02/10 22:11:14;;;;;;;;;17.25;17.25;;;;;;;;5071528;28;8965;-84
2022/02/10 22:21:46;;;;;;;;;56.75;50.00;;;;;;;;5071674;28;8804;-83
2022/02/10 22:24:14;;;;;;;;;156.60;156.60;;;;;;;;5073655;28;8776;-83
2022/02/10 22:26:41;;;;;;;;;6.75;6.75;;;;;;;;5074260;28;8817;-84
2022/02/10 22:29:12;;;;;;;;;14.00;14.00;;;;;;;;5075588;28;8800;-84
2022/02/10 22:32:27;;;;;;;;;120.17;116.33;;;;;;;;5075543;28;8830;-83
2022/02/10 22:36:56;;;;;;;;;159.75;159.00;;;;;;;;5074858;28;8899;-84
2022/02/10 22:39:22;;;;;;;;;0.00;0.00;;;;;;;;5075127;28;11653;-84
2022/02/10 22:41:47;;;;;;;;;150.33;150.33;;;;;;;;5074856;28;8855;-83
2022/02/10 22:44:13;;;;;;;;;154.25;154.00;;;;;;;;5074864;28;8868;-83
2022/02/10 22:46:38;;;;;;;;;161.40;161.20;;;;;;;;5074975;28;8823;-84
2022/02/10 22:49:04;;;;;;;;;18.25;18.25;;;;;;;;5075383;28;8909;-83
2022/02/10 22:51:31;;;;;;;;;156.80;156.00;;;;;;;;5076156;28;8820;-83
2022/02/10 22:53:56;;;;;;;;;154.80;154.80;;;;;;;;5080724;28;9387;-83
2022/02/10 22:56:24;;;;;;;;;149.80;149.80;;;;;;;;5076310;28;8997;-84
2022/02/10 22:58:53;;;;;;;;;127.60;127.20;;;;;;;;5075122;28;9913;-84
2022/02/10 23:01:18;;;;;;;;;145.00;145.00;;;;;;;;5074365;28;8936;-83
2022/02/10 23:03:44;;;;;;;;;156.25;155.50;;;;;;;;5073085;28;9693;-83
2022/02/10 23:06:10;;;;;;;;;148.20;146.20;;;;;;;;5073167;28;8828;-82
2022/02/10 23:08:36;;;;;;;;;137.40;136.80;;;;;;;;5074543;28;8792;-83
2022/02/10 23:11:02;;;;;;;;;140.20;139.60;;;;;;;;5067958;28;8916;-82
2022/02/10 23:13:30;;;;;;;;;164.80;162.60;;;;;;;;5067827;28;8825;-83
2022/02/10 23:15:57;;;;;;;;;142.60;142.60;;;;;;;;5061328;28;9703;-83
2022/02/10 23:18:24;;;;;;;;;145.60;144.80;;;;;;;;5071230;28;11718;-81
2022/02/10 23:20:50;;;;;;;;;171.25;171.25;;;;;;;;5068038;28;10439;-83
2022/02/10 23:23:17;;;;;;;;;170.80;170.80;;;;;;;;5072060;28;8808;-83
2022/02/10 23:25:43;;;;;;;;;158.50;157.17;;;;;;;;5074129;28;8801;-82
2022/02/10 23:28:12;;;;;;;;;162.00;160.80;;;;;;;;5074164;28;8804;-82
2022/02/10 23:30:38;;;;;;;;;160.67;160.00;;;;;;;;5072674;28;8812;-83
2022/02/10 23:33:39;;;;;;;;;154.20;154.20;;;;;;;;5072535;28;8852;-83
2022/02/10 23:38:43;;;;;;;;;137.20;137.20;;;;;;;;5073994;28;8811;-83
2022/02/10 23:41:46;;;;;;;;;152.33;152.33;;;;;;;;5072000;28;8815;-83
2022/02/10 23:44:09;;;;;;;;;163.40;163.40;;;;;;;;5068444;28;8845;-83
2022/02/10 23:46:34;;;;;;;;;147.60;147.60;;;;;;;;5074008;28;8777;-83
2022/02/10 23:48:59;;;;;;;;;141.75;141.75;;;;;;;;5073945;28;8899;-82
2022/02/10 23:51:30;;;;;;;;;148.00;146.75;;;;;;;;5073903;28;11963;-83
2022/02/10 23:53:55;;;;;;;;;150.80;149.00;;;;;;;;5073651;28;8869;-83
2022/02/10 23:56:25;;;;;;;;;145.75;144.75;;;;;;;;5073935;28;9061;-83
2022/02/10 23:59:00;;;;;;;;;140.20;137.60;;;;;;;;5073883;28;8780;-83
